Hit Tracker is now ESPN Home Run Tracker! Hit Tracker founder Greg Rybarczyk is now collaborating with the ESPN Stats & Information Group to continue tracking all MLB home runs, and helping baseball fans know "How Far It Really Went!™" Please credit any information on this site to ESPN Stats & Information Group. For more information and analysis on home runs, please contact founder Greg Rybarczyk. E-Mail ESPN Home Run Tracker
Main Page | Ballparks | Park Overlays | Glossary | Highlight Homers | Feedback | Bio | 3 Types of HR's | AAA Home Run Derby Last Updated: July 22, 2016, 11:09 pm PST
If you want to know "How Far It Really Went!", then you've come to the right place! Welcome to the ESPN Home Run Tracker, where you can find accurate, transparently verifiable distances for every home run hit in MLB games. Please also check out the ESPN MLB Scoreboard throughout the 2016 season! Contact us at grybar@hittrackeronline.com.
Season:
Ballpark detail for Comerica Park
Ballpark # of Home Runs HR per game Avg.
True
Distance
Avg.
Speed
Off
Bat
Avg.
Std.
Dist.
Comerica Park 113 2.51 396.4 103.9 394.5

Scatter Plot of Home Runs Comerica Park
 Overlay Ballpark:
Without range rings   With range rings

2016 Season Home Runs for Comerica Park
Click headers to sort
Date Video Path Hitter Hitter
Team
Pitcher Pitcher
Team
INN Ballpark Type/
Luck
True
Dist.
Speed
Off
Bat
Elev.
Angle
Horiz.
Angle
Apex Impact Due To: Std.
Dist.
#
Parks
Wind Temp. Alt. ^
04/09/16 Video View Rodriguez, Alex NYY Pelfrey, Mike DET 1 Comerica Par... PL 429 117.6 18.4 98.8 55 -1 -2 0 431 30
04/11/16 Video View Castellanos, Nick DET Niese, Jonathon PIT 2 Comerica Par... JE 379 104.4 22.3 74.3 59 1 0 0 378 5
04/22/16 Video View Santana, Carlos CLE Verlander, Justin DET 1 Comerica Par... PL 372 98.9 27.5 70.0 74 2 -1 0 371 18
05/07/16 Video View Mazara, Nomar TEX Pelfrey, Mike DET 1 Comerica Par... PL 417 113.8 20.4 76.2 59 0 0 0 416 29
05/08/16 Video View Wilson, Bobby TEX Lowe, Mark DET 8 Comerica Par... JE 369 101.6 25.6 114.4 66 0 0 0 369 20
05/08/16 Video View DeShields, Delino TEX Lowe, Mark DET 8 Comerica Par... JE 378 106.2 21.8 108.2 55 0 -1 0 377 12
05/16/16 Video View Castellanos, Nick DET Dean, Pat MIN 7 Comerica Par... JE 398 110.1 20.7 104.1 56 0 0 0 399 26
06/05/16 Video View Abreu, Jose CHW Verlander, Justin DET 1 Comerica Par... JE 439 109.3 22.0 88.1 76 0 0 0 439 28
06/08/16 Video View Smoak, Justin TOR Zimmermann, Jordan DET 1 Comerica Par... JE 377 103.3 23.7 71.2 63 0 0 0 376 17
06/20/16 Video View Lind, Adam SEA Pelfrey, Mike DET 5 Comerica Par... JE 361 102.2 23.4 67.0 56 0 1 0 360 7
06/23/16 Video View Cruz, Nelson SEA Rondon, Bruce DET 6 Comerica Par... ND 413 112.2 22.6 110.9 64 0 0 0 412 30
06/25/16 Video View Gomes, Yan CLE Lowe, Mark DET 9 Comerica Par... PL 387 107.0 22.5 109.1 60 -1 1 0 386 28
06/28/16 Video View Stanton, Giancarlo MIA Pelfrey, Mike DET 2 Comerica Par... JE 441 115.0 17.9 90.0 58 0 0 0 441 28
07/15/16 Video View Collins, Tyler DET Hochevar, Luke KC 7 Comerica Par... JE 407 108.2 22.2 77.3 64 0 0 0 407 28
07/18/16 Video View Upton, Justin DET Nolasco, Ricky MIN 2 Comerica Par... ND 416 107.9 31.5 120.8 103 0 0 0 416 30
04/12/16 Video View Upton, Justin DET Nicasio, Juan PIT 1 Comerica Par... PL 452 109.3 25.4 92.5 99 1 -3 1 453 30
04/12/16 Video View Kinsler, Ian DET Luebke, Cory PIT 7 Comerica Par... JE 359 97.5 28.6 113.2 78 -2 -2 1 362 20
04/08/16 Video View Cabrera, Miguel DET Cessa, Luis NYY 7 Comerica Par... PL 381 100.3 29.8 64.9 85 5 -4 1 377 29
04/09/16 Video View Beltran, Carlos NYY Farmer, Buck DET 5 Comerica Par... ND 419 109.5 25.1 72.0 80 0 -4 1 422 30
04/11/16 Video View Martinez, J.D. DET Niese, Jonathon PIT 5 Comerica Par... ND 402 107.1 27.0 116.7 80 -1 -1 1 402 30
04/22/16 Video View Byrd, Marlon CLE Verlander, Justin DET 7 Comerica Par... PL 389 101.8 25.9 74.3 74 1 -2 1 388 25
04/23/16 Video View Saltalamacchia, Jarrod DET Kluber, Corey CLE 5 Comerica Par... PL 402 103.6 27.6 73.5 88 -1 -2 1 404 30
04/25/16 Video View Cabrera, Miguel DET Graveman, Kendall OAK 5 Comerica Par... JE 354 101.0 25.2 59.5 60 -1 -1 1 354 18
04/26/16 Video View Semien, Marcus OAK Pelfrey, Mike DET 7 Comerica Par... PL 402 104.2 27.0 108.0 83 2 -3 1 402 30
04/27/16 Video View Martinez, Victor DET Hendriks, Liam OAK 6 Comerica Par... PL 382 101.1 25.7 75.2 76 -2 -1 1 385 26
05/07/16 Video View Odor, Rougned TEX Pelfrey, Mike DET 1 Comerica Par... PL 395 105.5 23.5 105.2 67 0 0 1 395 29
05/07/16 Video View Kinsler, Ian DET Ranaudo, Anthony TEX 4 Comerica Par... PL 412 103.4 28.8 104.7 94 3 0 1 407 30
05/07/16 Video View Beltre, Adrian TEX Pelfrey, Mike DET 6 Comerica Par... JE 378 100.7 25.3 73.4 67 1 0 1 377 12
05/07/16 Video View Moreland, Mitch TEX Ryan, Kyle DET 6 Comerica Par... JE 425 105.9 24.5 97.0 81 1 0 1 424 29
05/16/16 Video View Kinsler, Ian DET Berrios, Jose MIN 1 Comerica Par... PL 390 105.2 26.1 115.6 72 0 0 1 389 30
05/16/16 Video View Suzuki, Kurt MIN Zimmermann, Jordan DET 2 Comerica Par... PL 394 101.6 26.5 103.7 80 0 0 1 394 26
05/16/16 Video View Martinez, J.D. DET Pressly, Ryan MIN 8 Comerica Par... PL 388 104.2 27.7 117.8 78 0 -1 1 388 30
05/17/16 Video View Mauer, Joe MIN Pelfrey, Mike DET 5 Comerica Par... ND 392 103.7 30.1 62.8 92 0 -1 1 392 30
05/17/16 Video View Martinez, J.D. DET May, Trevor MIN 7 Comerica Par... PL 377 98.3 30.1 75.9 97 -5 -2 1 382 26
05/20/16 Video View Souza Jr., Steven TB Sanchez, Anibal DET 1 Comerica Par... PL 383 108.2 23.5 119.3 60 0 0 1 383 30
05/21/16 Video View Maybin, Cameron DET Smyly, Drew TB 3 Comerica Par... JE 382 102.5 24.5 107.2 67 0 0 1 381 21
05/21/16 Video View Martinez, J.D. DET Geltz, Steven TB 7 Comerica Par... PL 366 96.6 31.5 65.8 87 4 0 1 361 22
05/22/16 Video View Morrison, Logan TB Zimmermann, Jordan DET 2 Comerica Par... ND 399 103.6 28.2 67.8 84 3 0 1 395 30
05/22/16 Video View Cabrera, Miguel DET Archer, Chris TB 3 Comerica Par... PL 443 107.1 28.3 86.7 114 -3 0 1 444 29
05/22/16 Video View Martinez, Victor DET Geltz, Steven TB 8 Comerica Par... JE 363 99.0 26.7 114.2 68 1 0 1 361 11
05/23/16 Video View Franco, Maikel PHI Pelfrey, Mike DET 4 Comerica Par... PL 395 101.9 26.2 103.9 79 0 0 1 394 26
05/23/16 Video View Martinez, J.D. DET Velasquez, Vince PHI 5 Comerica Par... PL 379 100.6 30.1 65.7 90 -2 0 1 380 29
05/23/16 Video View Cabrera, Miguel DET Velasquez, Vince PHI 5 Comerica Par... ND 421 111.3 25.8 116.2 78 0 0 1 419 30
05/23/16 Video View Castellanos, Nick DET Murray, Colton PHI 5 Comerica Par... PL 384 103.0 24.8 108.1 68 0 0 1 383 26
05/23/16 Video View Joseph, Tommy PHI Pelfrey, Mike DET 6 Comerica Par... PL 389 108.5 22.3 110.9 58 0 0 1 389 30
05/25/16 Video View Herrera, Odubel PHI Sanchez, Anibal DET 4 Comerica Par... ND 409 105.7 28.1 69.3 91 -3 1 1 409 30
05/25/16 Video View Bourjos, Peter PHI Sanchez, Anibal DET 7 Comerica Par... PL 401 102.7 25.3 101.0 78 -1 1 1 401 28
06/03/16 Video View Martinez, Victor DET Rodon, Carlos CHW 3 Comerica Par... PL 372 97.2 29.8 71.8 86 0 1 1 370 15
06/05/16 Video View Frazier, Todd CHW Verlander, Justin DET 6 Comerica Par... PL 423 105.1 25.7 99.7 79 4 0 1 418 30
06/06/16 Video View McCann, James DET Happ, J.A. TOR 2 Comerica Par... ND 432 112.4 23.2 106.4 71 2 1 1 430 30
06/06/16 Video View Upton, Justin DET Happ, J.A. TOR 3 Comerica Par... JE 355 102.3 23.8 60.9 54 0 0 1 353 9
06/20/16 Video View Upton, Justin DET Vincent, Nick SEA 7 Comerica Par... PL 446 106.0 28.1 91.3 102 5 2 1 438 30
06/20/16 Video View Upton, Justin DET Nuno, Vidal SEA 12 Comerica Par... PL 410 114.2 20.7 108.6 56 1 1 1 409 30
06/22/16 Video View Moya, Steven DET Iwakuma, Hisashi SEA 5 Comerica Par... JE 367 100.0 26.2 113.1 67 0 0 1 366 15
06/23/16 Video View Cruz, Nelson SEA Norris, Daniel DET 4 Comerica Par... PL 436 113.7 20.6 99.2 65 0 0 1 435 30
06/23/16 Video View McCann, James DET Nuno, Vidal SEA 4 Comerica Par... PL 405 111.5 20.9 105.4 58 0 0 1 405 30
06/25/16 Video View Santana, Carlos CLE Sanchez, Anibal DET 1 Comerica Par... ND 405 107.1 28.5 60.9 87 -3 2 1 404 30
06/26/16 Video View Martinez, Victor DET Tomlin, Josh CLE 4 Comerica Par... PL 374 96.8 29.8 71.3 83 4 2 1 367 8
06/26/16 Video View Napoli, Mike CLE Verlander, Justin DET 5 Comerica Par... ND 413 109.0 26.4 116.4 78 0 2 1 410 30
06/26/16 Video View Naquin, Tyler CLE Verlander, Justin DET 5 Comerica Par... PL 383 100.8 31.2 69.2 101 -8 5 1 386 30
06/26/16 Video View Martinez, Victor DET Tomlin, Josh CLE 6 Comerica Par... JE 356 96.2 29.5 112.9 81 -5 2 1 358 11
06/28/16 Video View Iglesias, Jose DET Conley, Adam MIA 5 Comerica Par... PL 409 103.6 28.2 104.8 93 0 0 1 408 30
06/28/16 Video View Cabrera, Miguel DET Conley, Adam MIA 5 Comerica Par... ND 421 108.0 26.9 109.1 88 0 -1 1 420 30
06/28/16 Video View Castellanos, Nick DET Wittgren, Nick MIA 5 Comerica Par... JE 433 104.8 26.9 88.1 96 2 -1 1 431 27
06/29/16 Video View Moya, Steven DET McGowan, Dustin MIA 5 Comerica Par... PL 378 103.6 26.3 59.4 67 2 1 1 374 29
06/29/16 Video View Saltalamacchia, Jarrod DET McGowan, Dustin MIA 5 Comerica Par... JE 358 97.2 28.5 64.4 73 0 1 1 356 13
07/15/16 Video View Kinsler, Ian DET Kennedy, Ian KC 1 Comerica Par... PL 385 100.9 27.9 110.4 79 1 1 1 382 30
07/17/16 Video View Saltalamacchia, Jarrod DET Soria, Joakim KC 9 Comerica Par... ND 415 108.6 26.9 66.2 84 -2 2 1 415 30
07/20/16 Video View Mauer, Joe MIN Verlander, Justin DET 1 Comerica Par... PL 397 105.2 23.2 103.3 66 0 0 1 396 25
07/20/16 Video View Kinsler, Ian DET Santana, Ervin MIN 1 Comerica Par... PL 390 101.2 28.0 108.4 83 0 1 1 388 30
07/20/16 Video View Kelper, Max MIN Rodriguez, Francisco DET 9 Comerica Par... PL 394 103.5 26.9 69.0 78 0 2 1 392 29
04/23/16 Video View Gomes, Yan CLE Sanchez, Anibal DET 3 Comerica Par... PL 402 101.6 31.1 101.5 111 0 -3 2 403 30
04/25/16 Video View Martinez, Victor DET Graveman, Kendall OAK 5 Comerica Par... PL 425 105.3 28.2 80.2 103 -1 -2 2 425 29
04/25/16 Video View Cabrera, Miguel DET Graveman, Kendall OAK 1 Comerica Par... JE 347 96.0 36.8 62.1 112 1 -1 2 345 24
04/27/16 Video View Martinez, J.D. DET Gray, Sonny OAK 2 Comerica Par... PL 431 105.7 28.7 82.2 109 2 -2 2 431 30
04/27/16 Video View Davis, Khris OAK Verlander, Justin DET 4 Comerica Par... PL 448 108.9 27.7 97.3 111 0 -3 2 449 30
04/28/16 Video View Vogt, Stephen OAK Sanchez, Anibal DET 4 Comerica Par... ND 402 104.7 31.2 67.6 106 2 -5 2 403 30
04/28/16 Video View Gose, Anthony DET Bassitt, Chris OAK 4 Comerica Par... ND 402 104.8 31.1 68.3 107 0 -4 2 405 30
05/06/16 Video View Odor, Rougned TEX Zimmermann, Jordan DET 5 Comerica Par... ND 411 106.4 30.2 65.8 101 0 0 2 409 30
05/17/16 Video View Sano, Miguel MIN Pelfrey, Mike DET 6 Comerica Par... PL 395 101.9 33.8 76.9 127 0 -3 2 395 29
05/17/16 Video View Kinsler, Ian DET May, Trevor MIN 7 Comerica Par... PL 372 99.8 34.2 112.3 114 -2 -3 2 375 30
05/20/16 Video View Cabrera, Miguel DET Andriese, Matt TB 3 Comerica Par... PL 364 97.4 33.2 64.2 98 0 0 2 362 26
05/20/16 Video View Pearce, Steve TB Wilson, Alex DET 8 Comerica Par... ND 412 108.3 28.4 114.1 96 -7 0 2 417 30
05/21/16 Video View Longoria, Evan TB Fulmer, Michael DET 6 Comerica Par... PL 358 96.4 35.0 115.0 106 0 1 2 355 15
05/21/16 Video View McCann, James DET Smyly, Drew TB 7 Comerica Par... PL 416 103.1 30.3 100.0 110 0 0 2 414 30
05/22/16 Video View Beckham, Tim TB VerHagen, Drew DET 7 Comerica Par... PL 446 107.1 26.7 86.1 98 3 0 2 441 30
05/23/16 Video View Cabrera, Miguel DET Velasquez, Vince PHI 3 Comerica Par... PL 362 96.2 33.7 66.3 100 1 1 2 358 15
06/03/16 Video View McCann, James DET Rodon, Carlos CHW 2 Comerica Par... JE 401 100.9 33.4 99.1 124 0 2 2 397 20
06/04/16 Video View Martinez, J.D. DET Sale, Chris CHW 6 Comerica Par... PL 427 105.8 28.1 101.7 100 0 0 2 425 30
06/07/16 Video View Pillar, Kevin TOR Boyd, Matt DET 5 Comerica Par... ND 412 108.6 30.1 121.2 97 0 -1 2 412 30
06/08/16 Video View Castellanos, Nick DET Dickey, R.A. TOR 1 Comerica Par... ND 424 106.7 30.8 107.8 111 4 -2 2 420 30
06/08/16 Video View Donaldson, Josh TOR Zimmermann, Jordan DET 3 Comerica Par... PL 383 98.0 32.4 104.5 105 3 -1 2 379 21
06/20/16 Video View Cabrera, Miguel DET Karns, Nathan SEA 1 Comerica Par... ND 461 108.9 28.1 97.0 105 7 3 2 449 30
06/20/16 Video View Seager, Kyle SEA Pelfrey, Mike DET 2 Comerica Par... PL 426 104.6 30.9 80.5 117 0 4 2 421 29
06/22/16 Video View Moya, Steven DET Iwakuma, Hisashi SEA 4 Comerica Par... JE 349 94.9 35.3 63.3 103 0 1 2 346 18
06/23/16 Video View Iannetta, Chris SEA Norris, Daniel DET 5 Comerica Par... PL 363 98.6 35.1 120.3 107 0 1 2 360 30
06/25/16 Video View Lindor, Francisco CLE Sanchez, Anibal DET 1 Comerica Par... PL 386 102.5 33.4 62.2 108 -4 3 2 384 30
06/25/16 Video View Lindor, Francisco CLE Lowe, Mark DET 8 Comerica Par... ND 391 105.0 28.7 62.0 88 -7 1 2 395 30
06/26/16 Video View Aviles, Mike DET Tomlin, Josh CLE 3 Comerica Par... PL 361 96.8 33.6 120.2 94 2 3 2 355 28
06/26/16 Video View Chisenhall, Lonnie CLE Verlander, Justin DET 5 Comerica Par... JE 347 94.7 35.4 65.9 107 -7 4 2 347 13
06/29/16 Video View Cabrera, Miguel DET McGowan, Dustin MIA 4 Comerica Par... ND 451 109.9 27.3 100.7 104 0 2 2 448 30
07/16/16 Video View Kinsler, Ian DET Duffy, Danny KC 3 Comerica Par... JE 357 95.6 34.1 113.3 101 0 1 2 355 12
07/20/16 Video View Rosario, Eddie MIN Rodriguez, Francisco DET 9 Comerica Par... PL 408 101.7 30.0 78.0 102 0 3 2 404 29
04/12/16 Video View Marte, Starling PIT Sanchez, Anibal DET 6 Comerica Par... PL 393 100.1 36.1 112.4 117 28 -6 3 368 23
05/07/16 Video View Beltre, Adrian TEX Wilson, Justin DET 7 Comerica Par... ND 398 103.1 34.6 117.0 113 12 1 3 384 30
05/16/16 Video View Sano, Miguel MIN Zimmermann, Jordan DET 3 Comerica Par... PL 387 100.7 35.8 113.5 119 14 -1 3 371 29
05/18/16 Video View Kinsler, Ian DET Rogers, Taylor MIN 6 Comerica Par... PL 368 100.0 37.0 107.8 135 0 -2 3 367 20
05/20/16 Video View Cabrera, Miguel DET Ramirez, Erasmo TB 7 Comerica Par... PL 440 106.9 31.2 91.8 131 1 -1 3 438 30
06/21/16 Video View Seager, Kyle SEA Verlander, Justin DET 6 Comerica Par... PL 395 101.6 34.1 71.3 119 5 2 3 386 30
06/22/16 Video View Cabrera, Miguel DET Iwakuma, Hisashi SEA 1 Comerica Par... ND 408 107.3 34.3 115.5 127 0 2 3 403 30
06/23/16 Video View Martin, Leonys SEA Norris, Daniel DET 5 Comerica Par... PL 354 98.3 38.2 67.6 131 0 0 3 350 16
06/26/16 Video View Uribe, Juan CLE Verlander, Justin DET 5 Comerica Par... PL 383 101.1 36.2 118.5 117 8 5 3 368 30
07/19/16 Video View Dozier, Brian MIN Rondon, Bruce DET 7 Comerica Par... PL 382 102.1 36.0 109.7 132 0 0 3 379 30


About HitTracker | Contact Us
© 2006-2016 HitTrackerOnline